sensor_id;sensor_type;location;lat;lon;timestamp;temperature;humidity
68139;DHT22;54940;50.842;4.410;2022-08-27T00:00:43;19.30;98.00
68139;DHT22;54940;50.842;4.410;2022-08-27T00:03:10;19.50;97.90
68139;DHT22;54940;50.842;4.410;2022-08-27T00:05:36;19.60;97.60
68139;DHT22;54940;50.842;4.410;2022-08-27T00:08:04;19.50;97.60
68139;DHT22;54940;50.842;4.410;2022-08-27T00:10:30;19.50;97.80
68139;DHT22;54940;50.842;4.410;2022-08-27T00:12:56;19.50;97.70
68139;DHT22;54940;50.842;4.410;2022-08-27T00:15:23;19.40;97.60
68139;DHT22;54940;50.842;4.410;2022-08-27T00:17:49;19.50;97.50
68139;DHT22;54940;50.842;4.410;2022-08-27T00:20:18;19.40;97.40
68139;DHT22;54940;50.842;4.410;2022-08-27T00:22:44;19.40;97.50
68139;DHT22;54940;50.842;4.410;2022-08-27T00:25:11;19.40;97.80
68139;DHT22;54940;50.842;4.410;2022-08-27T00:27:37;19.30;97.60
68139;DHT22;54940;50.842;4.410;2022-08-27T00:30:05;19.30;97.60
68139;DHT22;54940;50.842;4.410;2022-08-27T00:32:32;19.40;97.40
68139;DHT22;54940;50.842;4.410;2022-08-27T00:34:57;19.30;97.30
68139;DHT22;54940;50.842;4.410;2022-08-27T00:37:23;19.20;97.60
68139;DHT22;54940;50.842;4.410;2022-08-27T00:39:49;19.10;98.20
68139;DHT22;54940;50.842;4.410;2022-08-27T00:42:14;19.10;98.00
68139;DHT22;54940;50.842;4.410;2022-08-27T00:44:40;19.20;97.80
68139;DHT22;54940;50.842;4.410;2022-08-27T00:47:12;19.00;97.90
68139;DHT22;54940;50.842;4.410;2022-08-27T00:52:42;19.00;98.20
68139;DHT22;54940;50.842;4.410;2022-08-27T00:55:14;19.10;97.90
68139;DHT22;54940;50.842;4.410;2022-08-27T00:57:42;19.00;98.00
68139;DHT22;54940;50.842;4.410;2022-08-27T01:00:12;19.00;98.10
68139;DHT22;54940;50.842;4.410;2022-08-27T01:02:38;18.90;98.20
68139;DHT22;54940;50.842;4.410;2022-08-27T01:05:16;18.90;98.10
68139;DHT22;54940;50.842;4.410;2022-08-27T01:07:47;19.00;98.20
68139;DHT22;54940;50.842;4.410;2022-08-27T01:10:17;19.10;97.80
68139;DHT22;54940;50.842;4.410;2022-08-27T01:12:43;19.00;98.30
68139;DHT22;54940;50.842;4.410;2022-08-27T01:15:13;19.00;98.20
68139;DHT22;54940;50.842;4.410;2022-08-27T01:17:40;19.00;98.00
68139;DHT22;54940;50.842;4.410;2022-08-27T01:20:11;19.00;98.00
68139;DHT22;54940;50.842;4.410;2022-08-27T01:25:23;18.80;98.10
68139;DHT22;54940;50.842;4.410;2022-08-27T01:27:50;18.80;98.10
68139;DHT22;54940;50.842;4.410;2022-08-27T01:30:19;18.70;98.30
68139;DHT22;54940;50.842;4.410;2022-08-27T01:32:46;18.80;98.30
68139;DHT22;54940;50.842;4.410;2022-08-27T01:35:13;18.80;98.00
68139;DHT22;54940;50.842;4.410;2022-08-27T01:37:40;18.90;97.90
68139;DHT22;54940;50.842;4.410;2022-08-27T01:40:08;18.80;98.20
68139;DHT22;54940;50.842;4.410;2022-08-27T01:42:38;18.90;98.10
68139;DHT22;54940;50.842;4.410;2022-08-27T01:45:07;18.80;98.00
68139;DHT22;54940;50.842;4.410;2022-08-27T01:47:35;18.90;98.20
68139;DHT22;54940;50.842;4.410;2022-08-27T01:50:06;18.90;97.90
68139;DHT22;54940;50.842;4.410;2022-08-27T01:52:32;18.90;98.00
68139;DHT22;54940;50.842;4.410;2022-08-27T01:54:58;18.90;98.10
68139;DHT22;54940;50.842;4.410;2022-08-27T01:57:24;18.90;98.00
68139;DHT22;54940;50.842;4.410;2022-08-27T01:59:50;18.90;98.00
68139;DHT22;54940;50.842;4.410;2022-08-27T02:02:16;18.90;98.00
68139;DHT22;54940;50.842;4.410;2022-08-27T02:04:43;19.00;97.80
68139;DHT22;54940;50.842;4.410;2022-08-27T02:07:10;18.90;97.90
68139;DHT22;54940;50.842;4.410;2022-08-27T02:09:36;18.80;97.90
68139;DHT22;54940;50.842;4.410;2022-08-27T02:12:02;18.90;98.00
68139;DHT22;54940;50.842;4.410;2022-08-27T02:14:28;18.90;98.00
68139;DHT22;54940;50.842;4.410;2022-08-27T02:16:55;18.80;97.80
68139;DHT22;54940;50.842;4.410;2022-08-27T02:19:21;18.90;97.80
68139;DHT22;54940;50.842;4.410;2022-08-27T02:21:48;18.90;97.90
68139;DHT22;54940;50.842;4.410;2022-08-27T02:24:14;18.90;97.90
68139;DHT22;54940;50.842;4.410;2022-08-27T02:26:40;18.70;98.00
68139;DHT22;54940;50.842;4.410;2022-08-27T02:29:06;18.80;98.00
68139;DHT22;54940;50.842;4.410;2022-08-27T02:31:32;18.80;97.90
68139;DHT22;54940;50.842;4.410;2022-08-27T02:33:58;18.90;98.30
68139;DHT22;54940;50.842;4.410;2022-08-27T02:36:25;18.90;97.80
68139;DHT22;54940;50.842;4.410;2022-08-27T02:38:51;19.00;97.80
68139;DHT22;54940;50.842;4.410;2022-08-27T02:41:17;18.90;98.10
68139;DHT22;54940;50.842;4.410;2022-08-27T02:43:43;19.00;97.80
68139;DHT22;54940;50.842;4.410;2022-08-27T02:46:09;18.90;97.80
68139;DHT22;54940;50.842;4.410;2022-08-27T02:48:40;18.80;98.00
68139;DHT22;54940;50.842;4.410;2022-08-27T02:51:06;18.80;98.00
68139;DHT22;54940;50.842;4.410;2022-08-27T02:53:32;18.70;98.30
68139;DHT22;54940;50.842;4.410;2022-08-27T02:55:58;18.70;98.20
68139;DHT22;54940;50.842;4.410;2022-08-27T02:58:24;18.70;98.30
68139;DHT22;54940;50.842;4.410;2022-08-27T03:00:50;18.70;98.10
68139;DHT22;54940;50.842;4.410;2022-08-27T03:03:16;18.80;98.30
68139;DHT22;54940;50.842;4.410;2022-08-27T03:05:42;18.70;98.20
68139;DHT22;54940;50.842;4.410;2022-08-27T03:08:07;18.60;98.20
68139;DHT22;54940;50.842;4.410;2022-08-27T03:10:34;18.70;98.20
68139;DHT22;54940;50.842;4.410;2022-08-27T03:12:59;18.60;98.30
68139;DHT22;54940;50.842;4.410;2022-08-27T03:15:26;18.60;98.30
68139;DHT22;54940;50.842;4.410;2022-08-27T03:17:52;18.60;98.30
68139;DHT22;54940;50.842;4.410;2022-08-27T03:20:41;18.60;98.30
68139;DHT22;54940;50.842;4.410;2022-08-27T03:23:09;18.70;98.30
68139;DHT22;54940;50.842;4.410;2022-08-27T03:25:36;18.60;98.40
68139;DHT22;54940;50.842;4.410;2022-08-27T03:28:02;18.50;98.40
68139;DHT22;54940;50.842;4.410;2022-08-27T03:30:28;18.50;98.80
68139;DHT22;54940;50.842;4.410;2022-08-27T03:32:54;18.40;98.70
68139;DHT22;54940;50.842;4.410;2022-08-27T03:35:20;18.40;98.70
68139;DHT22;54940;50.842;4.410;2022-08-27T03:37:46;18.30;98.90
68139;DHT22;54940;50.842;4.410;2022-08-27T03:40:13;18.30;99.10
68139;DHT22;54940;50.842;4.410;2022-08-27T03:42:39;18.40;99.10
68139;DHT22;54940;50.842;4.410;2022-08-27T03:45:06;18.30;98.90
68139;DHT22;54940;50.842;4.410;2022-08-27T03:47:34;18.30;98.90
68139;DHT22;54940;50.842;4.410;2022-08-27T03:49:59;18.40;99.10
68139;DHT22;54940;50.842;4.410;2022-08-27T03:52:26;18.40;99.10
68139;DHT22;54940;50.842;4.410;2022-08-27T03:54:52;18.40;99.00
68139;DHT22;54940;50.842;4.410;2022-08-27T03:57:18;18.40;98.90
68139;DHT22;54940;50.842;4.410;2022-08-27T03:59:44;18.30;99.20
68139;DHT22;54940;50.842;4.410;2022-08-27T04:02:09;18.40;99.00
68139;DHT22;54940;50.842;4.410;2022-08-27T04:04:36;18.40;98.80
68139;DHT22;54940;50.842;4.410;2022-08-27T04:07:02;18.40;99.00
68139;DHT22;54940;50.842;4.410;2022-08-27T04:09:28;18.40;98.90
68139;DHT22;54940;50.842;4.410;2022-08-27T04:11:54;18.40;98.70
68139;DHT22;54940;50.842;4.410;2022-08-27T04:14:20;18.30;99.10
68139;DHT22;54940;50.842;4.410;2022-08-27T04:16:46;18.20;99.10
68139;DHT22;54940;50.842;4.410;2022-08-27T04:19:13;18.20;99.30
68139;DHT22;54940;50.842;4.410;2022-08-27T04:21:39;18.20;99.30
68139;DHT22;54940;50.842;4.410;2022-08-27T04:24:05;18.20;99.30
68139;DHT22;54940;50.842;4.410;2022-08-27T04:26:30;18.20;99.40
68139;DHT22;54940;50.842;4.410;2022-08-27T04:28:57;18.20;99.40
68139;DHT22;54940;50.842;4.410;2022-08-27T04:31:23;18.20;99.50
68139;DHT22;54940;50.842;4.410;2022-08-27T04:33:50;18.10;99.40
68139;DHT22;54940;50.842;4.410;2022-08-27T04:36:18;18.20;99.60
68139;DHT22;54940;50.842;4.410;2022-08-27T04:38:45;18.10;99.50
68139;DHT22;54940;50.842;4.410;2022-08-27T04:41:11;18.10;99.40
68139;DHT22;54940;50.842;4.410;2022-08-27T04:43:57;18.10;99.50
68139;DHT22;54940;50.842;4.410;2022-08-27T04:46:25;18.00;99.80
68139;DHT22;54940;50.842;4.410;2022-08-27T04:48:52;18.10;99.70
68139;DHT22;54940;50.842;4.410;2022-08-27T04:51:18;18.10;99.60
68139;DHT22;54940;50.842;4.410;2022-08-27T04:53:44;18.00;99.70
68139;DHT22;54940;50.842;4.410;2022-08-27T04:56:15;18.00;99.90
68139;DHT22;54940;50.842;4.410;2022-08-27T04:58:41;18.00;99.90
68139;DHT22;54940;50.842;4.410;2022-08-27T05:01:08;18.00;99.90
68139;DHT22;54940;50.842;4.410;2022-08-27T05:03:34;18.10;99.90
68139;DHT22;54940;50.842;4.410;2022-08-27T05:06:03;18.10;99.90
68139;DHT22;54940;50.842;4.410;2022-08-27T05:08:29;18.10;99.90
68139;DHT22;54940;50.842;4.410;2022-08-27T05:10:54;18.20;99.90
68139;DHT22;54940;50.842;4.410;2022-08-27T05:13:21;18.20;99.90
68139;DHT22;54940;50.842;4.410;2022-08-27T05:15:49;18.20;99.90
68139;DHT22;54940;50.842;4.410;2022-08-27T05:18:22;18.20;99.90
68139;DHT22;54940;50.842;4.410;2022-08-27T05:20:48;18.20;99.90
68139;DHT22;54940;50.842;4.410;2022-08-27T05:23:16;18.20;99.90
68139;DHT22;54940;50.842;4.410;2022-08-27T05:25:43;18.20;99.90
68139;DHT22;54940;50.842;4.410;2022-08-27T05:28:11;18.10;99.90
68139;DHT22;54940;50.842;4.410;2022-08-27T05:30:43;18.00;99.90
68139;DHT22;54940;50.842;4.410;2022-08-27T05:33:10;18.10;99.90
68139;DHT22;54940;50.842;4.410;2022-08-27T05:35:56;18.20;99.90
68139;DHT22;54940;50.842;4.410;2022-08-27T05:38:23;18.20;99.90
68139;DHT22;54940;50.842;4.410;2022-08-27T05:40:49;18.30;99.90
68139;DHT22;54940;50.842;4.410;2022-08-27T05:43:16;18.20;99.90
68139;DHT22;54940;50.842;4.410;2022-08-27T05:45:45;18.30;99.90
68139;DHT22;54940;50.842;4.410;2022-08-27T05:48:15;18.30;99.90
68139;DHT22;54940;50.842;4.410;2022-08-27T05:50:42;18.40;99.90
68139;DHT22;54940;50.842;4.410;2022-08-27T05:53:09;18.70;99.90
68139;DHT22;54940;50.842;4.410;2022-08-27T05:55:43;18.80;99.50
68139;DHT22;54940;50.842;4.410;2022-08-27T05:58:10;18.80;99.50
68139;DHT22;54940;50.842;4.410;2022-08-27T06:00:56;18.80;99.50
68139;DHT22;54940;50.842;4.410;2022-08-27T06:03:35;18.80;99.60
68139;DHT22;54940;50.842;4.410;2022-08-27T06:06:04;18.70;99.60
68139;DHT22;54940;50.842;4.410;2022-08-27T06:08:30;18.80;99.70
68139;DHT22;54940;50.842;4.410;2022-08-27T06:10:56;18.70;99.90
68139;DHT22;54940;50.842;4.410;2022-08-27T06:13:22;18.60;99.90
68139;DHT22;54940;50.842;4.410;2022-08-27T06:15:48;18.60;99.90
68139;DHT22;54940;50.842;4.410;2022-08-27T06:18:14;18.60;99.90
68139;DHT22;54940;50.842;4.410;2022-08-27T06:20:40;18.70;99.90
68139;DHT22;54940;50.842;4.410;2022-08-27T06:23:06;18.80;99.90
68139;DHT22;54940;50.842;4.410;2022-08-27T06:25:32;18.80;99.80
68139;DHT22;54940;50.842;4.410;2022-08-27T06:27:58;18.90;99.90
68139;DHT22;54940;50.842;4.410;2022-08-27T06:30:24;19.00;99.50
68139;DHT22;54940;50.842;4.410;2022-08-27T06:32:50;18.80;99.80
68139;DHT22;54940;50.842;4.410;2022-08-27T06:35:17;19.20;99.90
68139;DHT22;54940;50.842;4.410;2022-08-27T06:37:43;19.40;99.20
68139;DHT22;54940;50.842;4.410;2022-08-27T06:40:09;19.70;99.70
68139;DHT22;54940;50.842;4.410;2022-08-27T06:42:36;20.00;98.70
68139;DHT22;54940;50.842;4.410;2022-08-27T06:45:03;20.00;97.60
68139;DHT22;54940;50.842;4.410;2022-08-27T06:47:32;20.00;97.60
68139;DHT22;54940;50.842;4.410;2022-08-27T06:49:58;20.00;97.70
68139;DHT22;54940;50.842;4.410;2022-08-27T06:52:23;19.90;98.20
68139;DHT22;54940;50.842;4.410;2022-08-27T06:54:49;19.80;98.00
68139;DHT22;54940;50.842;4.410;2022-08-27T06:57:16;19.70;97.80
68139;DHT22;54940;50.842;4.410;2022-08-27T06:59:41;19.70;98.00
68139;DHT22;54940;50.842;4.410;2022-08-27T07:02:09;19.60;97.90
68139;DHT22;54940;50.842;4.410;2022-08-27T07:04:35;19.50;98.20
68139;DHT22;54940;50.842;4.410;2022-08-27T07:07:01;19.40;98.50
68139;DHT22;54940;50.842;4.410;2022-08-27T07:09:27;19.30;98.50
68139;DHT22;54940;50.842;4.410;2022-08-27T07:11:55;19.30;98.70
68139;DHT22;54940;50.842;4.410;2022-08-27T07:14:21;19.50;99.50
68139;DHT22;54940;50.842;4.410;2022-08-27T07:16:47;19.70;98.80
68139;DHT22;54940;50.842;4.410;2022-08-27T07:19:13;19.80;98.30
68139;DHT22;54940;50.842;4.410;2022-08-27T07:21:39;20.10;98.00
68139;DHT22;54940;50.842;4.410;2022-08-27T07:24:05;20.10;97.30
68139;DHT22;54940;50.842;4.410;2022-08-27T07:26:34;20.30;96.50
68139;DHT22;54940;50.842;4.410;2022-08-27T07:29:00;20.70;97.80
68139;DHT22;54940;50.842;4.410;2022-08-27T07:31:25;20.90;95.90
68139;DHT22;54940;50.842;4.410;2022-08-27T07:33:51;20.80;96.10
68139;DHT22;54940;50.842;4.410;2022-08-27T07:36:17;21.10;96.60
68139;DHT22;54940;50.842;4.410;2022-08-27T07:38:43;21.50;96.50
68139;DHT22;54940;50.842;4.410;2022-08-27T07:41:11;22.00;94.90
68139;DHT22;54940;50.842;4.410;2022-08-27T07:43:37;22.50;94.70
68139;DHT22;54940;50.842;4.410;2022-08-27T07:46:22;22.80;93.20
68139;DHT22;54940;50.842;4.410;2022-08-27T07:48:49;22.80;92.40
68139;DHT22;54940;50.842;4.410;2022-08-27T07:51:18;23.10;93.20
68139;DHT22;54940;50.842;4.410;2022-08-27T07:53:45;23.60;92.10
68139;DHT22;54940;50.842;4.410;2022-08-27T07:56:11;24.00;92.70
68139;DHT22;54940;50.842;4.410;2022-08-27T07:58:37;24.00;90.60
68139;DHT22;54940;50.842;4.410;2022-08-27T08:01:03;24.10;91.20
68139;DHT22;54940;50.842;4.410;2022-08-27T08:03:29;24.30;91.50
68139;DHT22;54940;50.842;4.410;2022-08-27T08:05:55;24.30;89.10
68139;DHT22;54940;50.842;4.410;2022-08-27T08:08:22;24.50;90.70
68139;DHT22;54940;50.842;4.410;2022-08-27T08:10:49;24.30;90.10
68139;DHT22;54940;50.842;4.410;2022-08-27T08:13:16;24.00;89.40
68139;DHT22;54940;50.842;4.410;2022-08-27T08:15:43;23.70;87.50
68139;DHT22;54940;50.842;4.410;2022-08-27T08:18:10;23.90;88.20
68139;DHT22;54940;50.842;4.410;2022-08-27T08:20:35;24.20;89.80
68139;DHT22;54940;50.842;4.410;2022-08-27T08:23:01;24.30;88.70
68139;DHT22;54940;50.842;4.410;2022-08-27T08:25:27;24.50;88.50
68139;DHT22;54940;50.842;4.410;2022-08-27T08:27:53;24.60;87.10
68139;DHT22;54940;50.842;4.410;2022-08-27T08:30:19;25.00;85.30
68139;DHT22;54940;50.842;4.410;2022-08-27T08:32:45;25.20;84.80
68139;DHT22;54940;50.842;4.410;2022-08-27T08:35:11;25.70;87.60
68139;DHT22;54940;50.842;4.410;2022-08-27T08:37:36;25.50;79.80
68139;DHT22;54940;50.842;4.410;2022-08-27T08:40:04;25.40;81.80
68139;DHT22;54940;50.842;4.410;2022-08-27T08:42:37;25.40;83.80
68139;DHT22;54940;50.842;4.410;2022-08-27T08:45:05;25.00;79.60
68139;DHT22;54940;50.842;4.410;2022-08-27T08:47:46;24.30;84.40
68139;DHT22;54940;50.842;4.410;2022-08-27T08:50:20;24.00;84.40
68139;DHT22;54940;50.842;4.410;2022-08-27T08:55:54;24.10;84.80
68139;DHT22;54940;50.842;4.410;2022-08-27T09:01:03;24.20;86.40
68139;DHT22;54940;50.842;4.410;2022-08-27T09:03:32;24.80;86.00
68139;DHT22;54940;50.842;4.410;2022-08-27T09:06:19;25.30;85.30
68139;DHT22;54940;50.842;4.410;2022-08-27T09:08:45;25.80;82.20
68139;DHT22;54940;50.842;4.410;2022-08-27T09:13:54;25.80;78.50
68139;DHT22;54940;50.842;4.410;2022-08-27T09:16:20;25.80;79.70
68139;DHT22;54940;50.842;4.410;2022-08-27T09:18:46;25.50;78.70
68139;DHT22;54940;50.842;4.410;2022-08-27T09:26:40;25.70;81.30
68139;DHT22;54940;50.842;4.410;2022-08-27T09:29:10;26.10;79.80
68139;DHT22;54940;50.842;4.410;2022-08-27T09:31:46;26.10;76.00
68139;DHT22;54940;50.842;4.410;2022-08-27T09:34:12;25.80;78.10
68139;DHT22;54940;50.842;4.410;2022-08-27T09:37:01;25.70;77.20
68139;DHT22;54940;50.842;4.410;2022-08-27T09:42:07;25.50;76.60
68139;DHT22;54940;50.842;4.410;2022-08-27T09:44:44;25.50;76.70
68139;DHT22;54940;50.842;4.410;2022-08-27T09:47:12;25.10;78.50
68139;DHT22;54940;50.842;4.410;2022-08-27T09:49:40;25.10;77.50
68139;DHT22;54940;50.842;4.410;2022-08-27T09:52:06;25.30;76.50
68139;DHT22;54940;50.842;4.410;2022-08-27T09:54:44;25.10;78.20
68139;DHT22;54940;50.842;4.410;2022-08-27T09:57:13;24.90;76.00
68139;DHT22;54940;50.842;4.410;2022-08-27T09:59:52;25.40;77.60
68139;DHT22;54940;50.842;4.410;2022-08-27T10:02:21;25.70;77.40
68139;DHT22;54940;50.842;4.410;2022-08-27T10:04:50;25.80;77.60
68139;DHT22;54940;50.842;4.410;2022-08-27T10:07:42;25.80;76.60
68139;DHT22;54940;50.842;4.410;2022-08-27T10:10:21;26.20;78.40
68139;DHT22;54940;50.842;4.410;2022-08-27T10:12:53;26.50;77.30
68139;DHT22;54940;50.842;4.410;2022-08-27T10:15:21;26.10;76.80
68139;DHT22;54940;50.842;4.410;2022-08-27T10:18:02;25.70;72.40
68139;DHT22;54940;50.842;4.410;2022-08-27T10:23:44;25.50;76.00
68139;DHT22;54940;50.842;4.410;2022-08-27T10:26:21;25.40;76.70
68139;DHT22;54940;50.842;4.410;2022-08-27T10:29:14;25.40;76.90
68139;DHT22;54940;50.842;4.410;2022-08-27T10:37:14;24.70;79.60
68139;DHT22;54940;50.842;4.410;2022-08-27T10:43:29;25.60;76.30
68139;DHT22;54940;50.842;4.410;2022-08-27T10:48:21;26.10;73.40
68139;DHT22;54940;50.842;4.410;2022-08-27T10:56:29;27.10;71.30
68139;DHT22;54940;50.842;4.410;2022-08-27T11:04:53;27.20;70.30
68139;DHT22;54940;50.842;4.410;2022-08-27T11:07:35;26.90;70.20
68139;DHT22;54940;50.842;4.410;2022-08-27T11:10:06;27.10;68.90
68139;DHT22;54940;50.842;4.410;2022-08-27T11:12:40;27.40;75.50
68139;DHT22;54940;50.842;4.410;2022-08-27T11:17:51;27.90;68.50
68139;DHT22;54940;50.842;4.410;2022-08-27T11:20:33;27.50;69.50
68139;DHT22;54940;50.842;4.410;2022-08-27T11:23:10;27.20;72.90
68139;DHT22;54940;50.842;4.410;2022-08-27T11:25:51;27.00;73.00
68139;DHT22;54940;50.842;4.410;2022-08-27T11:28:20;26.60;70.10
68139;DHT22;54940;50.842;4.410;2022-08-27T11:33:32;25.80;74.20
68139;DHT22;54940;50.842;4.410;2022-08-27T11:41:27;25.20;74.60
68139;DHT22;54940;50.842;4.410;2022-08-27T11:43:58;25.20;76.80
68139;DHT22;54940;50.842;4.410;2022-08-27T11:46:27;25.20;76.00
68139;DHT22;54940;50.842;4.410;2022-08-27T11:49:03;25.10;75.80
68139;DHT22;54940;50.842;4.410;2022-08-27T11:51:34;25.10;76.00
68139;DHT22;54940;50.842;4.410;2022-08-27T11:54:06;24.90;76.70
68139;DHT22;54940;50.842;4.410;2022-08-27T11:56:40;24.70;77.30
68139;DHT22;54940;50.842;4.410;2022-08-27T11:59:22;24.50;79.50
68139;DHT22;54940;50.842;4.410;2022-08-27T12:01:57;24.50;78.10
68139;DHT22;54940;50.842;4.410;2022-08-27T12:04:37;24.50;79.20
68139;DHT22;54940;50.842;4.410;2022-08-27T12:07:23;24.40;79.20
68139;DHT22;54940;50.842;4.410;2022-08-27T12:15:05;24.20;80.30
68139;DHT22;54940;50.842;4.410;2022-08-27T12:22:48;23.90;81.20
68139;DHT22;54940;50.842;4.410;2022-08-27T12:25:36;23.90;82.30
68139;DHT22;54940;50.842;4.410;2022-08-27T12:28:05;23.60;82.00
68139;DHT22;54940;50.842;4.410;2022-08-27T12:30:40;23.60;82.50
68139;DHT22;54940;50.842;4.410;2022-08-27T12:33:29;23.70;82.00
68139;DHT22;54940;50.842;4.410;2022-08-27T12:36:02;23.50;83.50
68139;DHT22;54940;50.842;4.410;2022-08-27T12:41:01;23.70;83.20
68139;DHT22;54940;50.842;4.410;2022-08-27T12:43:34;23.70;83.00
68139;DHT22;54940;50.842;4.410;2022-08-27T12:48:40;23.80;81.80
68139;DHT22;54940;50.842;4.410;2022-08-27T12:51:25;23.90;84.70
68139;DHT22;54940;50.842;4.410;2022-08-27T13:00:07;23.80;83.50
68139;DHT22;54940;50.842;4.410;2022-08-27T13:02:42;23.70;83.10
68139;DHT22;54940;50.842;4.410;2022-08-27T13:05:11;23.70;84.10
68139;DHT22;54940;50.842;4.410;2022-08-27T13:07:44;23.50;83.10
68139;DHT22;54940;50.842;4.410;2022-08-27T13:10:28;23.60;86.30
68139;DHT22;54940;50.842;4.410;2022-08-27T13:13:14;23.80;86.00
68139;DHT22;54940;50.842;4.410;2022-08-27T13:15:53;24.10;85.60
68139;DHT22;54940;50.842;4.410;2022-08-27T13:18:20;24.10;82.40
68139;DHT22;54940;50.842;4.410;2022-08-27T13:20:48;24.10;82.00
68139;DHT22;54940;50.842;4.410;2022-08-27T13:23:19;24.00;82.10
68139;DHT22;54940;50.842;4.410;2022-08-27T13:26:08;24.00;84.20
68139;DHT22;54940;50.842;4.410;2022-08-27T13:28:36;23.90;83.50
68139;DHT22;54940;50.842;4.410;2022-08-27T13:31:03;23.80;84.10
68139;DHT22;54940;50.842;4.410;2022-08-27T13:33:32;23.70;81.90
68139;DHT22;54940;50.842;4.410;2022-08-27T13:35:59;23.80;84.00
68139;DHT22;54940;50.842;4.410;2022-08-27T13:38:28;23.80;83.40
68139;DHT22;54940;50.842;4.410;2022-08-27T13:43:33;23.90;84.70
68139;DHT22;54940;50.842;4.410;2022-08-27T13:46:03;23.90;83.00
68139;DHT22;54940;50.842;4.410;2022-08-27T13:48:30;23.80;84.10
68139;DHT22;54940;50.842;4.410;2022-08-27T13:50:56;23.80;83.40
68139;DHT22;54940;50.842;4.410;2022-08-27T13:53:25;23.80;82.70
68139;DHT22;54940;50.842;4.410;2022-08-27T13:56:26;23.90;83.70
68139;DHT22;54940;50.842;4.410;2022-08-27T13:58:53;23.80;83.40
68139;DHT22;54940;50.842;4.410;2022-08-27T14:01:28;23.80;84.30
68139;DHT22;54940;50.842;4.410;2022-08-27T14:04:02;23.80;84.10
68139;DHT22;54940;50.842;4.410;2022-08-27T14:06:39;23.70;84.80
68139;DHT22;54940;50.842;4.410;2022-08-27T14:09:17;23.70;84.20
68139;DHT22;54940;50.842;4.410;2022-08-27T14:11:45;23.70;85.40
68139;DHT22;54940;50.842;4.410;2022-08-27T14:14:12;23.60;84.00
68139;DHT22;54940;50.842;4.410;2022-08-27T14:16:38;23.50;85.20
68139;DHT22;54940;50.842;4.410;2022-08-27T14:19:26;23.60;84.40
68139;DHT22;54940;50.842;4.410;2022-08-27T14:21:52;23.60;85.60
68139;DHT22;54940;50.842;4.410;2022-08-27T14:24:18;23.70;83.90
68139;DHT22;54940;50.842;4.410;2022-08-27T14:26:48;23.60;83.60
68139;DHT22;54940;50.842;4.410;2022-08-27T14:29:14;23.50;84.50
68139;DHT22;54940;50.842;4.410;2022-08-27T14:31:40;23.40;84.00
68139;DHT22;54940;50.842;4.410;2022-08-27T14:34:06;23.40;83.90
68139;DHT22;54940;50.842;4.410;2022-08-27T14:36:37;23.30;85.50
68139;DHT22;54940;50.842;4.410;2022-08-27T14:39:06;23.30;85.00
68139;DHT22;54940;50.842;4.410;2022-08-27T14:41:32;23.30;85.70
68139;DHT22;54940;50.842;4.410;2022-08-27T14:43:58;23.30;83.70
68139;DHT22;54940;50.842;4.410;2022-08-27T14:46:29;23.40;84.70
68139;DHT22;54940;50.842;4.410;2022-08-27T14:48:57;23.40;84.00
68139;DHT22;54940;50.842;4.410;2022-08-27T14:51:27;23.30;86.20
68139;DHT22;54940;50.842;4.410;2022-08-27T14:53:54;23.30;84.60
68139;DHT22;54940;50.842;4.410;2022-08-27T14:56:22;23.20;84.60
68139;DHT22;54940;50.842;4.410;2022-08-27T14:58:48;23.20;84.80
68139;DHT22;54940;50.842;4.410;2022-08-27T15:01:15;23.10;83.90
68139;DHT22;54940;50.842;4.410;2022-08-27T15:03:45;23.10;84.10
68139;DHT22;54940;50.842;4.410;2022-08-27T15:06:12;23.20;87.30
68139;DHT22;54940;50.842;4.410;2022-08-27T15:08:38;23.20;86.50
68139;DHT22;54940;50.842;4.410;2022-08-27T15:11:04;23.10;85.50
68139;DHT22;54940;50.842;4.410;2022-08-27T15:13:30;23.20;85.30
68139;DHT22;54940;50.842;4.410;2022-08-27T15:15:56;23.30;85.50
68139;DHT22;54940;50.842;4.410;2022-08-27T15:18:22;23.30;86.10
68139;DHT22;54940;50.842;4.410;2022-08-27T15:20:48;23.30;86.00
68139;DHT22;54940;50.842;4.410;2022-08-27T15:23:14;23.30;85.00
68139;DHT22;54940;50.842;4.410;2022-08-27T15:25:43;23.20;84.50
68139;DHT22;54940;50.842;4.410;2022-08-27T15:28:09;23.20;84.70
68139;DHT22;54940;50.842;4.410;2022-08-27T15:30:34;23.00;85.10
68139;DHT22;54940;50.842;4.410;2022-08-27T15:33:03;23.00;84.50
68139;DHT22;54940;50.842;4.410;2022-08-27T15:35:29;23.00;83.50
68139;DHT22;54940;50.842;4.410;2022-08-27T15:37:56;23.00;85.30
68139;DHT22;54940;50.842;4.410;2022-08-27T15:40:23;22.90;82.10
68139;DHT22;54940;50.842;4.410;2022-08-27T15:42:56;23.00;84.90
68139;DHT22;54940;50.842;4.410;2022-08-27T15:45:22;22.90;84.30
68139;DHT22;54940;50.842;4.410;2022-08-27T15:47:48;22.90;84.10
68139;DHT22;54940;50.842;4.410;2022-08-27T15:50:14;22.90;84.20
68139;DHT22;54940;50.842;4.410;2022-08-27T15:52:40;22.80;85.60
68139;DHT22;54940;50.842;4.410;2022-08-27T15:55:14;22.80;84.30
68139;DHT22;54940;50.842;4.410;2022-08-27T15:57:41;22.70;85.00
68139;DHT22;54940;50.842;4.410;2022-08-27T16:00:08;22.70;86.20
68139;DHT22;54940;50.842;4.410;2022-08-27T16:02:33;22.70;86.50
68139;DHT22;54940;50.842;4.410;2022-08-27T16:04:59;22.60;85.30
68139;DHT22;54940;50.842;4.410;2022-08-27T16:07:25;22.60;85.70
68139;DHT22;54940;50.842;4.410;2022-08-27T16:09:50;22.40;85.90
68139;DHT22;54940;50.842;4.410;2022-08-27T16:12:16;22.40;88.00
68139;DHT22;54940;50.842;4.410;2022-08-27T16:14:43;22.30;87.50
68139;DHT22;54940;50.842;4.410;2022-08-27T16:17:09;22.40;88.70
68139;DHT22;54940;50.842;4.410;2022-08-27T16:19:36;22.30;87.30
68139;DHT22;54940;50.842;4.410;2022-08-27T16:22:03;22.40;86.40
68139;DHT22;54940;50.842;4.410;2022-08-27T16:24:31;22.40;87.70
68139;DHT22;54940;50.842;4.410;2022-08-27T16:26:57;22.30;88.50
68139;DHT22;54940;50.842;4.410;2022-08-27T16:29:23;22.40;88.40
68139;DHT22;54940;50.842;4.410;2022-08-27T16:31:48;22.40;88.30
68139;DHT22;54940;50.842;4.410;2022-08-27T16:34:16;22.40;88.00
68139;DHT22;54940;50.842;4.410;2022-08-27T16:36:43;22.50;87.30
68139;DHT22;54940;50.842;4.410;2022-08-27T16:39:10;22.50;87.00
68139;DHT22;54940;50.842;4.410;2022-08-27T16:41:36;22.60;87.20
68139;DHT22;54940;50.842;4.410;2022-08-27T16:44:02;22.60;87.10
68139;DHT22;54940;50.842;4.410;2022-08-27T16:46:28;22.60;87.70
68139;DHT22;54940;50.842;4.410;2022-08-27T16:48:53;22.70;86.40
68139;DHT22;54940;50.842;4.410;2022-08-27T16:51:37;22.70;87.90
68139;DHT22;54940;50.842;4.410;2022-08-27T16:54:05;22.60;86.90
68139;DHT22;54940;50.842;4.410;2022-08-27T16:56:31;22.50;87.50
68139;DHT22;54940;50.842;4.410;2022-08-27T16:58:57;22.40;89.30
68139;DHT22;54940;50.842;4.410;2022-08-27T17:01:23;22.40;89.40
68139;DHT22;54940;50.842;4.410;2022-08-27T17:03:56;22.40;88.20